sensor_id;sensor_type;location;lat;lon;timestamp;P1;durP1;ratioP1;P2;durP2;ratioP2
65825;SDS011;52586;-43.152;172.732;2023-05-16T00:01:45;2.17;;;1.20;;
65825;SDS011;52586;-43.152;172.732;2023-05-16T00:04:16;2.17;;;1.50;;
65825;SDS011;52586;-43.152;172.732;2023-05-16T00:06:46;1.98;;;1.38;;
65825;SDS011;52586;-43.152;172.732;2023-05-16T00:09:17;2.13;;;1.20;;
65825;SDS011;52586;-43.152;172.732;2023-05-16T00:11:48;2.47;;;1.50;;
65825;SDS011;52586;-43.152;172.732;2023-05-16T00:14:18;2.45;;;1.02;;
65825;SDS011;52586;-43.152;172.732;2023-05-16T00:16:53;2.40;;;1.30;;
65825;SDS011;52586;-43.152;172.732;2023-05-16T00:19:24;2.53;;;1.17;;
65825;SDS011;52586;-43.152;172.732;2023-05-16T00:21:55;2.70;;;1.08;;
65825;SDS011;52586;-43.152;172.732;2023-05-16T00:24:26;2.50;;;1.02;;
65825;SDS011;52586;-43.152;172.732;2023-05-16T00:26:56;1.77;;;1.10;;
65825;SDS011;52586;-43.152;172.732;2023-05-16T00:29:28;1.58;;;1.33;;
65825;SDS011;52586;-43.152;172.732;2023-05-16T00:32:01;2.10;;;1.23;;
65825;SDS011;52586;-43.152;172.732;2023-05-16T00:34:33;1.33;;;1.02;;
65825;SDS011;52586;-43.152;172.732;2023-05-16T00:37:04;1.45;;;1.20;;
65825;SDS011;52586;-43.152;172.732;2023-05-16T00:39:35;3.13;;;1.08;;
65825;SDS011;52586;-43.152;172.732;2023-05-16T00:42:05;2.15;;;1.17;;
65825;SDS011;52586;-43.152;172.732;2023-05-16T00:44:37;2.08;;;1.10;;
65825;SDS011;52586;-43.152;172.732;2023-05-16T00:47:09;2.17;;;1.27;;
65825;SDS011;52586;-43.152;172.732;2023-05-16T00:49:40;0.90;;;0.75;;
65825;SDS011;52586;-43.152;172.732;2023-05-16T00:52:11;2.38;;;1.23;;
65825;SDS011;52586;-43.152;172.732;2023-05-16T00:54:41;2.17;;;1.23;;
65825;SDS011;52586;-43.152;172.732;2023-05-16T00:57:12;2.25;;;1.38;;
65825;SDS011;52586;-43.152;172.732;2023-05-16T00:59:43;2.80;;;1.02;;
65825;SDS011;52586;-43.152;172.732;2023-05-16T01:02:16;1.52;;;1.05;;
65825;SDS011;52586;-43.152;172.732;2023-05-16T01:04:47;1.60;;;1.08;;
65825;SDS011;52586;-43.152;172.732;2023-05-16T01:07:18;1.58;;;1.00;;
65825;SDS011;52586;-43.152;172.732;2023-05-16T01:09:48;1.50;;;1.00;;
65825;SDS011;52586;-43.152;172.732;2023-05-16T01:12:20;1.88;;;0.98;;
65825;SDS011;52586;-43.152;172.732;2023-05-16T01:15:00;1.40;;;1.00;;
65825;SDS011;52586;-43.152;172.732;2023-05-16T01:17:37;1.95;;;1.15;;
65825;SDS011;52586;-43.152;172.732;2023-05-16T01:20:16;1.40;;;0.98;;
65825;SDS011;52586;-43.152;172.732;2023-05-16T01:23:02;1.17;;;0.90;;
65825;SDS011;52586;-43.152;172.732;2023-05-16T01:25:53;1.20;;;1.05;;
65825;SDS011;52586;-43.152;172.732;2023-05-16T01:28:31;1.65;;;1.20;;
65825;SDS011;52586;-43.152;172.732;2023-05-16T01:31:03;1.30;;;1.10;;
65825;SDS011;52586;-43.152;172.732;2023-05-16T01:33:34;1.92;;;0.90;;
65825;SDS011;52586;-43.152;172.732;2023-05-16T01:36:07;1.45;;;1.00;;
65825;SDS011;52586;-43.152;172.732;2023-05-16T01:38:45;1.35;;;0.90;;
65825;SDS011;52586;-43.152;172.732;2023-05-16T01:41:32;1.40;;;1.02;;
65825;SDS011;52586;-43.152;172.732;2023-05-16T01:44:13;1.15;;;0.90;;
65825;SDS011;52586;-43.152;172.732;2023-05-16T01:46:50;1.67;;;0.93;;
65825;SDS011;52586;-43.152;172.732;2023-05-16T01:49:25;1.73;;;1.10;;
65825;SDS011;52586;-43.152;172.732;2023-05-16T01:51:59;1.20;;;0.98;;
65825;SDS011;52586;-43.152;172.732;2023-05-16T01:54:38;1.20;;;1.00;;
65825;SDS011;52586;-43.152;172.732;2023-05-16T01:57:13;1.55;;;1.10;;
65825;SDS011;52586;-43.152;172.732;2023-05-16T01:59:47;1.13;;;0.95;;
65825;SDS011;52586;-43.152;172.732;2023-05-16T02:02:18;1.90;;;1.00;;
65825;SDS011;52586;-43.152;172.732;2023-05-16T02:04:48;1.42;;;1.08;;
65825;SDS011;52586;-43.152;172.732;2023-05-16T02:07:19;2.15;;;1.20;;
65825;SDS011;52586;-43.152;172.732;2023-05-16T02:09:50;3.50;;;1.08;;
65825;SDS011;52586;-43.152;172.732;2023-05-16T02:12:21;1.98;;;1.00;;
65825;SDS011;52586;-43.152;172.732;2023-05-16T02:14:54;2.10;;;1.08;;
65825;SDS011;52586;-43.152;172.732;2023-05-16T02:17:24;1.45;;;1.23;;
65825;SDS011;52586;-43.152;172.732;2023-05-16T02:19:55;1.52;;;1.00;;
65825;SDS011;52586;-43.152;172.732;2023-05-16T02:22:31;1.85;;;1.52;;
65825;SDS011;52586;-43.152;172.732;2023-05-16T02:25:02;3.58;;;1.77;;
65825;SDS011;52586;-43.152;172.732;2023-05-16T02:27:33;2.88;;;1.83;;
65825;SDS011;52586;-43.152;172.732;2023-05-16T02:30:06;2.38;;;1.65;;
65825;SDS011;52586;-43.152;172.732;2023-05-16T02:32:38;3.33;;;2.17;;
65825;SDS011;52586;-43.152;172.732;2023-05-16T02:35:10;3.28;;;1.80;;
65825;SDS011;52586;-43.152;172.732;2023-05-16T02:37:41;4.30;;;2.42;;
65825;SDS011;52586;-43.152;172.732;2023-05-16T02:40:11;4.45;;;2.08;;
65825;SDS011;52586;-43.152;172.732;2023-05-16T02:42:42;4.50;;;2.20;;
65825;SDS011;52586;-43.152;172.732;2023-05-16T02:45:16;3.50;;;2.20;;
65825;SDS011;52586;-43.152;172.732;2023-05-16T02:47:47;4.28;;;2.22;;
65825;SDS011;52586;-43.152;172.732;2023-05-16T02:50:17;3.63;;;2.28;;
65825;SDS011;52586;-43.152;172.732;2023-05-16T02:52:48;4.18;;;2.38;;
65825;SDS011;52586;-43.152;172.732;2023-05-16T02:55:18;4.03;;;2.50;;
65825;SDS011;52586;-43.152;172.732;2023-05-16T02:57:49;4.05;;;2.55;;
65825;SDS011;52586;-43.152;172.732;2023-05-16T03:00:22;4.10;;;2.58;;
65825;SDS011;52586;-43.152;172.732;2023-05-16T03:02:52;4.40;;;2.85;;
65825;SDS011;52586;-43.152;172.732;2023-05-16T03:05:23;5.40;;;2.70;;
65825;SDS011;52586;-43.152;172.732;2023-05-16T03:07:54;5.18;;;3.17;;
65825;SDS011;52586;-43.152;172.732;2023-05-16T03:10:24;4.95;;;3.20;;
65825;SDS011;52586;-43.152;172.732;2023-05-16T03:12:55;5.68;;;3.72;;
65825;SDS011;52586;-43.152;172.732;2023-05-16T03:15:28;6.43;;;3.72;;
65825;SDS011;52586;-43.152;172.732;2023-05-16T03:17:58;5.95;;;3.95;;
65825;SDS011;52586;-43.152;172.732;2023-05-16T03:20:29;6.00;;;3.83;;
65825;SDS011;52586;-43.152;172.732;2023-05-16T03:22:59;6.18;;;3.90;;
65825;SDS011;52586;-43.152;172.732;2023-05-16T03:25:32;5.25;;;3.95;;
65825;SDS011;52586;-43.152;172.732;2023-05-16T03:28:03;6.40;;;3.55;;
65825;SDS011;52586;-43.152;172.732;2023-05-16T03:30:37;5.25;;;3.47;;
65825;SDS011;52586;-43.152;172.732;2023-05-16T03:33:11;5.72;;;3.60;;
65825;SDS011;52586;-43.152;172.732;2023-05-16T03:35:42;6.10;;;3.55;;
65825;SDS011;52586;-43.152;172.732;2023-05-16T03:38:13;5.32;;;3.53;;
65825;SDS011;52586;-43.152;172.732;2023-05-16T03:40:44;5.60;;;3.55;;
65825;SDS011;52586;-43.152;172.732;2023-05-16T03:43:15;5.05;;;3.25;;
65825;SDS011;52586;-43.152;172.732;2023-05-16T03:45:48;6.93;;;3.45;;
65825;SDS011;52586;-43.152;172.732;2023-05-16T03:48:18;6.35;;;3.95;;
65825;SDS011;52586;-43.152;172.732;2023-05-16T03:50:49;4.88;;;3.85;;
65825;SDS011;52586;-43.152;172.732;2023-05-16T03:53:20;6.68;;;4.93;;
65825;SDS011;52586;-43.152;172.732;2023-05-16T03:55:50;7.32;;;5.05;;
65825;SDS011;52586;-43.152;172.732;2023-05-16T03:58:21;8.60;;;4.97;;
65825;SDS011;52586;-43.152;172.732;2023-05-16T04:00:53;7.38;;;5.50;;
65825;SDS011;52586;-43.152;172.732;2023-05-16T04:03:24;8.32;;;5.80;;
65825;SDS011;52586;-43.152;172.732;2023-05-16T04:05:55;5.90;;;4.63;;
65825;SDS011;52586;-43.152;172.732;2023-05-16T04:08:26;8.55;;;5.70;;
65825;SDS011;52586;-43.152;172.732;2023-05-16T04:10:56;7.95;;;5.80;;
65825;SDS011;52586;-43.152;172.732;2023-05-16T04:13:27;8.50;;;6.28;;
65825;SDS011;52586;-43.152;172.732;2023-05-16T04:16:00;9.13;;;6.55;;
65825;SDS011;52586;-43.152;172.732;2023-05-16T04:18:30;7.53;;;5.95;;
65825;SDS011;52586;-43.152;172.732;2023-05-16T04:21:01;8.68;;;7.03;;
65825;SDS011;52586;-43.152;172.732;2023-05-16T04:23:32;7.88;;;6.13;;
65825;SDS011;52586;-43.152;172.732;2023-05-16T04:26:03;8.60;;;6.70;;
65825;SDS011;52586;-43.152;172.732;2023-05-16T04:28:34;7.57;;;6.38;;
65825;SDS011;52586;-43.152;172.732;2023-05-16T04:31:06;9.70;;;6.65;;
65825;SDS011;52586;-43.152;172.732;2023-05-16T04:33:37;7.45;;;6.47;;
65825;SDS011;52586;-43.152;172.732;2023-05-16T04:36:07;8.35;;;6.32;;
65825;SDS011;52586;-43.152;172.732;2023-05-16T04:38:38;9.35;;;5.88;;
65825;SDS011;52586;-43.152;172.732;2023-05-16T04:41:09;7.65;;;5.72;;
65825;SDS011;52586;-43.152;172.732;2023-05-16T04:43:39;7.45;;;5.70;;
65825;SDS011;52586;-43.152;172.732;2023-05-16T04:46:12;7.78;;;5.95;;
65825;SDS011;52586;-43.152;172.732;2023-05-16T04:48:44;6.40;;;5.25;;
65825;SDS011;52586;-43.152;172.732;2023-05-16T04:51:14;7.07;;;6.00;;
65825;SDS011;52586;-43.152;172.732;2023-05-16T04:53:45;8.45;;;6.10;;
65825;SDS011;52586;-43.152;172.732;2023-05-16T04:56:16;7.40;;;5.72;;
65825;SDS011;52586;-43.152;172.732;2023-05-16T04:58:47;7.68;;;6.10;;
65825;SDS011;52586;-43.152;172.732;2023-05-16T05:01:20;7.07;;;5.50;;
65825;SDS011;52586;-43.152;172.732;2023-05-16T05:03:50;7.35;;;5.63;;
65825;SDS011;52586;-43.152;172.732;2023-05-16T05:06:21;7.82;;;6.10;;
65825;SDS011;52586;-43.152;172.732;2023-05-16T05:08:52;6.88;;;5.32;;
65825;SDS011;52586;-43.152;172.732;2023-05-16T05:11:23;6.35;;;5.20;;
65825;SDS011;52586;-43.152;172.732;2023-05-16T05:13:54;8.52;;;5.45;;
65825;SDS011;52586;-43.152;172.732;2023-05-16T05:16:26;7.25;;;5.97;;
65825;SDS011;52586;-43.152;172.732;2023-05-16T05:18:58;6.63;;;5.10;;
65825;SDS011;52586;-43.152;172.732;2023-05-16T05:21:28;6.40;;;5.18;;
65825;SDS011;52586;-43.152;172.732;2023-05-16T05:23:59;6.50;;;5.10;;
65825;SDS011;52586;-43.152;172.732;2023-05-16T05:26:30;7.38;;;5.25;;
65825;SDS011;52586;-43.152;172.732;2023-05-16T05:29:00;5.57;;;5.00;;
65825;SDS011;52586;-43.152;172.732;2023-05-16T05:31:33;6.78;;;5.22;;
65825;SDS011;52586;-43.152;172.732;2023-05-16T05:34:04;6.15;;;4.80;;
65825;SDS011;52586;-43.152;172.732;2023-05-16T05:36:34;6.82;;;4.85;;
65825;SDS011;52586;-43.152;172.732;2023-05-16T05:39:05;6.45;;;5.07;;
65825;SDS011;52586;-43.152;172.732;2023-05-16T05:41:35;6.30;;;5.20;;
65825;SDS011;52586;-43.152;172.732;2023-05-16T05:44:07;6.75;;;5.10;;
65825;SDS011;52586;-43.152;172.732;2023-05-16T05:46:39;5.72;;;4.80;;
65825;SDS011;52586;-43.152;172.732;2023-05-16T05:49:10;5.90;;;5.20;;
65825;SDS011;52586;-43.152;172.732;2023-05-16T05:51:41;7.43;;;4.50;;
65825;SDS011;52586;-43.152;172.732;2023-05-16T05:54:12;6.28;;;4.72;;
65825;SDS011;52586;-43.152;172.732;2023-05-16T05:56:43;5.72;;;4.68;;
65825;SDS011;52586;-43.152;172.732;2023-05-16T05:59:13;5.65;;;4.65;;
65825;SDS011;52586;-43.152;172.732;2023-05-16T06:01:46;6.00;;;4.97;;
65825;SDS011;52586;-43.152;172.732;2023-05-16T06:04:17;6.28;;;4.95;;
65825;SDS011;52586;-43.152;172.732;2023-05-16T06:06:48;6.75;;;4.85;;
65825;SDS011;52586;-43.152;172.732;2023-05-16T06:09:20;6.35;;;4.40;;
65825;SDS011;52586;-43.152;172.732;2023-05-16T06:11:51;6.75;;;4.72;;
65825;SDS011;52586;-43.152;172.732;2023-05-16T06:14:21;7.55;;;4.70;;
65825;SDS011;52586;-43.152;172.732;2023-05-16T06:16:54;6.00;;;4.53;;
65825;SDS011;52586;-43.152;172.732;2023-05-16T06:19:24;6.28;;;5.00;;
65825;SDS011;52586;-43.152;172.732;2023-05-16T06:21:55;5.88;;;4.60;;
65825;SDS011;52586;-43.152;172.732;2023-05-16T06:24:26;5.40;;;4.65;;
65825;SDS011;52586;-43.152;172.732;2023-05-16T06:26:56;6.55;;;4.82;;
65825;SDS011;52586;-43.152;172.732;2023-05-16T06:29:27;6.03;;;4.80;;
65825;SDS011;52586;-43.152;172.732;2023-05-16T06:31:59;6.25;;;4.70;;
65825;SDS011;52586;-43.152;172.732;2023-05-16T06:34:30;5.75;;;4.32;;
65825;SDS011;52586;-43.152;172.732;2023-05-16T06:37:00;5.85;;;4.63;;
65825;SDS011;52586;-43.152;172.732;2023-05-16T06:39:31;4.95;;;4.22;;
65825;SDS011;52586;-43.152;172.732;2023-05-16T06:42:02;4.18;;;3.78;;
65825;SDS011;52586;-43.152;172.732;2023-05-16T06:44:33;4.60;;;3.80;;
65825;SDS011;52586;-43.152;172.732;2023-05-16T06:47:05;5.85;;;4.57;;
65825;SDS011;52586;-43.152;172.732;2023-05-16T06:49:36;5.95;;;4.25;;
65825;SDS011;52586;-43.152;172.732;2023-05-16T06:52:06;5.95;;;4.15;;
65825;SDS011;52586;-43.152;172.732;2023-05-16T06:54:37;5.15;;;4.43;;
65825;SDS011;52586;-43.152;172.732;2023-05-16T06:57:08;4.75;;;4.00;;
65825;SDS011;52586;-43.152;172.732;2023-05-16T06:59:38;5.10;;;3.75;;
65825;SDS011;52586;-43.152;172.732;2023-05-16T07:02:11;5.88;;;4.20;;
65825;SDS011;52586;-43.152;172.732;2023-05-16T07:04:41;4.90;;;3.83;;
65825;SDS011;52586;-43.152;172.732;2023-05-16T07:07:12;4.32;;;3.92;;
65825;SDS011;52586;-43.152;172.732;2023-05-16T07:09:43;4.65;;;3.78;;
65825;SDS011;52586;-43.152;172.732;2023-05-16T07:12:14;4.03;;;3.63;;
65825;SDS011;52586;-43.152;172.732;2023-05-16T07:14:44;4.90;;;4.35;;
65825;SDS011;52586;-43.152;172.732;2023-05-16T07:17:17;4.28;;;3.65;;
65825;SDS011;52586;-43.152;172.732;2023-05-16T07:19:48;5.78;;;4.00;;
65825;SDS011;52586;-43.152;172.732;2023-05-16T07:22:18;5.15;;;3.67;;
65825;SDS011;52586;-43.152;172.732;2023-05-16T07:24:49;5.78;;;4.00;;
65825;SDS011;52586;-43.152;172.732;2023-05-16T07:27:22;5.10;;;3.63;;
65825;SDS011;52586;-43.152;172.732;2023-05-16T07:29:52;4.63;;;3.63;;
65825;SDS011;52586;-43.152;172.732;2023-05-16T07:32:25;5.50;;;4.10;;
65825;SDS011;52586;-43.152;172.732;2023-05-16T07:34:56;4.25;;;3.85;;
65825;SDS011;52586;-43.152;172.732;2023-05-16T07:37:26;4.70;;;3.50;;
65825;SDS011;52586;-43.152;172.732;2023-05-16T07:39:57;4.55;;;3.55;;
65825;SDS011;52586;-43.152;172.732;2023-05-16T07:42:28;4.30;;;3.70;;
65825;SDS011;52586;-43.152;172.732;2023-05-16T07:44:59;4.25;;;3.83;;
65825;SDS011;52586;-43.152;172.732;2023-05-16T07:47:32;4.75;;;3.72;;
65825;SDS011;52586;-43.152;172.732;2023-05-16T07:50:03;4.53;;;3.60;;
65825;SDS011;52586;-43.152;172.732;2023-05-16T07:52:33;3.70;;;3.30;;
65825;SDS011;52586;-43.152;172.732;2023-05-16T07:55:04;4.72;;;3.33;;
65825;SDS011;52586;-43.152;172.732;2023-05-16T07:57:36;3.78;;;3.40;;
65825;SDS011;52586;-43.152;172.732;2023-05-16T08:00:07;5.13;;;3.53;;
65825;SDS011;52586;-43.152;172.732;2023-05-16T08:02:41;4.45;;;3.40;;
65825;SDS011;52586;-43.152;172.732;2023-05-16T08:05:12;4.13;;;3.53;;
65825;SDS011;52586;-43.152;172.732;2023-05-16T08:07:43;4.47;;;3.22;;
65825;SDS011;52586;-43.152;172.732;2023-05-16T08:10:13;4.68;;;3.70;;
65825;SDS011;52586;-43.152;172.732;2023-05-16T08:12:44;5.45;;;3.47;;
65825;SDS011;52586;-43.152;172.732;2023-05-16T08:15:15;3.33;;;3.00;;
65825;SDS011;52586;-43.152;172.732;2023-05-16T08:17:47;3.92;;;3.15;;
65825;SDS011;52586;-43.152;172.732;2023-05-16T08:20:18;4.32;;;3.40;;
65825;SDS011;52586;-43.152;172.732;2023-05-16T08:22:49;4.90;;;3.75;;
65825;SDS011;52586;-43.152;172.732;2023-05-16T08:25:20;3.28;;;2.97;;
65825;SDS011;52586;-43.152;172.732;2023-05-16T08:27:50;4.15;;;3.20;;
65825;SDS011;52586;-43.152;172.732;2023-05-16T08:30:21;3.15;;;2.70;;
65825;SDS011;52586;-43.152;172.732;2023-05-16T08:32:53;3.85;;;3.17;;
65825;SDS011;52586;-43.152;172.732;2023-05-16T08:35:24;3.47;;;3.17;;
65825;SDS011;52586;-43.152;172.732;2023-05-16T08:37:55;4.72;;;3.20;;
65825;SDS011;52586;-43.152;172.732;2023-05-16T08:40:25;3.67;;;3.03;;
65825;SDS011;52586;-43.152;172.732;2023-05-16T08:42:56;4.00;;;3.13;;
65825;SDS011;52586;-43.152;172.732;2023-05-16T08:45:27;3.17;;;2.88;;
65825;SDS011;52586;-43.152;172.732;2023-05-16T08:48:01;3.45;;;3.13;;
65825;SDS011;52586;-43.152;172.732;2023-05-16T08:50:33;4.25;;;2.83;;
65825;SDS011;52586;-43.152;172.732;2023-05-16T08:53:06;3.88;;;2.95;;
65825;SDS011;52586;-43.152;172.732;2023-05-16T08:55:38;3.00;;;2.58;;
65825;SDS011;52586;-43.152;172.732;2023-05-16T08:58:11;3.38;;;3.00;;
65825;SDS011;52586;-43.152;172.732;2023-05-16T09:00:42;3.10;;;2.78;;
65825;SDS011;52586;-43.152;172.732;2023-05-16T09:03:15;3.35;;;2.63;;
65825;SDS011;52586;-43.152;172.732;2023-05-16T09:05:48;3.20;;;2.90;;
65825;SDS011;52586;-43.152;172.732;2023-05-16T09:08:19;3.55;;;2.75;;
65825;SDS011;52586;-43.152;172.732;2023-05-16T09:10:50;3.03;;;2.58;;
65825;SDS011;52586;-43.152;172.732;2023-05-16T09:13:20;4.70;;;3.00;;
65825;SDS011;52586;-43.152;172.732;2023-05-16T09:18:39;3.17;;;2.88;;
65825;SDS011;52586;-43.152;172.732;2023-05-16T09:21:11;3.50;;;2.75;;
65825;SDS011;52586;-43.152;172.732;2023-05-16T09:23:42;3.75;;;2.67;;
65825;SDS011;52586;-43.152;172.732;2023-05-16T09:26:16;3.83;;;2.80;;
65825;SDS011;52586;-43.152;172.732;2023-05-16T09:28:47;3.05;;;2.50;;
65825;SDS011;52586;-43.152;172.732;2023-05-16T09:31:21;3.30;;;2.55;;
65825;SDS011;52586;-43.152;172.732;2023-05-16T09:33:56;2.55;;;2.35;;
65825;SDS011;52586;-43.152;172.732;2023-05-16T09:36:26;3.28;;;2.40;;
65825;SDS011;52586;-43.152;172.732;2023-05-16T09:38:59;3.50;;;2.67;;
65825;SDS011;52586;-43.152;172.732;2023-05-16T09:41:32;3.25;;;2.50;;
65825;SDS011;52586;-43.152;172.732;2023-05-16T09:44:03;2.80;;;2.10;;
65825;SDS011;52586;-43.152;172.732;2023-05-16T09:46:36;3.58;;;2.63;;
65825;SDS011;52586;-43.152;172.732;2023-05-16T09:49:08;3.47;;;2.75;;
65825;SDS011;52586;-43.152;172.732;2023-05-16T09:51:41;4.72;;;2.80;;
65825;SDS011;52586;-43.152;172.732;2023-05-16T09:54:13;2.90;;;2.60;;
65825;SDS011;52586;-43.152;172.732;2023-05-16T09:56:50;3.13;;;2.67;;
65825;SDS011;52586;-43.152;172.732;2023-05-16T09:59:21;3.80;;;2.75;;
65825;SDS011;52586;-43.152;172.732;2023-05-16T10:01:51;3.58;;;2.50;;
65825;SDS011;52586;-43.152;172.732;2023-05-16T10:04:24;3.17;;;2.72;;
65825;SDS011;52586;-43.152;172.732;2023-05-16T10:06:55;2.75;;;2.50;;
65825;SDS011;52586;-43.152;172.732;2023-05-16T10:09:28;3.13;;;2.50;;
65825;SDS011;52586;-43.152;172.732;2023-05-16T10:12:01;3.03;;;2.70;;
65825;SDS011;52586;-43.152;172.732;2023-05-16T10:14:35;2.90;;;2.45;;
65825;SDS011;52586;-43.152;172.732;2023-05-16T10:17:07;3.15;;;2.40;;
65825;SDS011;52586;-43.152;172.732;2023-05-16T10:19:42;3.55;;;2.60;;
65825;SDS011;52586;-43.152;172.732;2023-05-16T10:22:13;3.67;;;2.88;;
65825;SDS011;52586;-43.152;172.732;2023-05-16T10:24:47;3.40;;;2.45;;
65825;SDS011;52586;-43.152;172.732;2023-05-16T10:27:20;3.75;;;3.03;;
65825;SDS011;52586;-43.152;172.732;2023-05-16T10:29:52;3.90;;;2.70;;
65825;SDS011;52586;-43.152;172.732;2023-05-16T10:32:23;3.67;;;2.80;;
65825;SDS011;52586;-43.152;172.732;2023-05-16T10:34:57;3.63;;;2.90;;
65825;SDS011;52586;-43.152;172.732;2023-05-16T10:37:28;3.33;;;2.90;;
65825;SDS011;52586;-43.152;172.732;2023-05-16T10:40:00;4.20;;;3.03;;
65825;SDS011;52586;-43.152;172.732;2023-05-16T10:42:32;3.83;;;2.95;;
65825;SDS011;52586;-43.152;172.732;2023-05-16T10:45:14;3.83;;;2.88;;
65825;SDS011;52586;-43.152;172.732;2023-05-16T10:47:50;3.83;;;3.08;;
65825;SDS011;52586;-43.152;172.732;2023-05-16T10:50:34;5.05;;;3.10;;
65825;SDS011;52586;-43.152;172.732;2023-05-16T10:53:15;4.13;;;2.90;;
65825;SDS011;52586;-43.152;172.732;2023-05-16T10:55:50;3.67;;;2.88;;
65825;SDS011;52586;-43.152;172.732;2023-05-16T10:58:44;4.15;;;2.85;;
65825;SDS011;52586;-43.152;172.732;2023-05-16T11:01:19;4.47;;;2.97;;
65825;SDS011;52586;-43.152;172.732;2023-05-16T11:04:07;3.85;;;3.38;;
65825;SDS011;52586;-43.152;172.732;2023-05-16T11:06:48;5.05;;;3.40;;
65825;SDS011;52586;-43.152;172.732;2023-05-16T11:09:22;4.68;;;3.75;;
65825;SDS011;52586;-43.152;172.732;2023-05-16T11:11:55;5.10;;;3.90;;
65825;SDS011;52586;-43.152;172.732;2023-05-16T11:14:34;4.47;;;3.30;;
65825;SDS011;52586;-43.152;172.732;2023-05-16T11:17:08;4.95;;;3.42;;
65825;SDS011;52586;-43.152;172.732;2023-05-16T11:19:39;3.92;;;3.28;;
65825;SDS011;52586;-43.152;172.732;2023-05-16T11:22:20;5.97;;;4.05;;
65825;SDS011;52586;-43.152;172.732;2023-05-16T11:24:52;5.32;;;3.92;;
65825;SDS011;52586;-43.152;172.732;2023-05-16T11:27:24;5.10;;;3.72;;
65825;SDS011;52586;-43.152;172.732;2023-05-16T11:29:58;4.22;;;3.60;;
65825;SDS011;52586;-43.152;172.732;2023-05-16T11:32:30;5.50;;;3.92;;
65825;SDS011;52586;-43.152;172.732;2023-05-16T11:35:03;4.93;;;3.42;;
65825;SDS011;52586;-43.152;172.732;2023-05-16T11:37:36;4.45;;;3.78;;
65825;SDS011;52586;-43.152;172.732;2023-05-16T11:40:08;4.10;;;3.47;;
65825;SDS011;52586;-43.152;172.732;2023-05-16T11:42:40;4.53;;;3.28;;
65825;SDS011;52586;-43.152;172.732;2023-05-16T11:45:15;4.85;;;3.80;;
65825;SDS011;52586;-43.152;172.732;2023-05-16T11:47:47;4.88;;;3.63;;
65825;SDS011;52586;-43.152;172.732;2023-05-16T11:50:18;4.72;;;3.70;;
65825;SDS011;52586;-43.152;172.732;2023-05-16T11:52:51;5.32;;;3.40;;
65825;SDS011;52586;-43.152;172.732;2023-05-16T11:55:23;4.93;;;3.72;;
65825;SDS011;52586;-43.152;172.732;2023-05-16T11:57:55;4.65;;;3.65;;
65825;SDS011;52586;-43.152;172.732;2023-05-16T12:00:27;4.95;;;3.75;;
65825;SDS011;52586;-43.152;172.732;2023-05-16T12:03:00;4.18;;;3.42;;
65825;SDS011;52586;-43.152;172.732;2023-05-16T12:05:32;4.53;;;3.67;;
65825;SDS011;52586;-43.152;172.732;2023-05-16T12:08:05;5.18;;;3.70;;
65825;SDS011;52586;-43.152;172.732;2023-05-16T12:10:37;5.22;;;3.83;;
65825;SDS011;52586;-43.152;172.732;2023-05-16T12:13:08;5.18;;;4.03;;
65825;SDS011;52586;-43.152;172.732;2023-05-16T12:15:39;4.32;;;3.35;;
65825;SDS011;52586;-43.152;172.732;2023-05-16T12:18:10;4.68;;;3.47;;
65825;SDS011;52586;-43.152;172.732;2023-05-16T12:20:41;5.95;;;3.83;;
65825;SDS011;52586;-43.152;172.732;2023-05-16T12:23:14;5.55;;;3.78;;
65825;SDS011;52586;-43.152;172.732;2023-05-16T12:25:45;4.45;;;3.83;;
65825;SDS011;52586;-43.152;172.732;2023-05-16T12:28:18;5.32;;;3.58;;
65825;SDS011;52586;-43.152;172.732;2023-05-16T12:30:48;4.75;;;3.70;;
65825;SDS011;52586;-43.152;172.732;2023-05-16T12:33:19;5.03;;;3.72;;
65825;SDS011;52586;-43.152;172.732;2023-05-16T12:35:50;4.05;;;3.22;;
65825;SDS011;52586;-43.152;172.732;2023-05-16T12:38:22;4.50;;;3.33;;
65825;SDS011;52586;-43.152;172.732;2023-05-16T12:40:56;4.28;;;3.47;;
65825;SDS011;52586;-43.152;172.732;2023-05-16T12:43:27;4.28;;;3.50;;
65825;SDS011;52586;-43.152;172.732;2023-05-16T12:45:59;4.70;;;3.40;;
65825;SDS011;52586;-43.152;172.732;2023-05-16T12:48:31;3.70;;;3.25;;
65825;SDS011;52586;-43.152;172.732;2023-05-16T12:51:11;3.83;;;3.08;;
65825;SDS011;52586;-43.152;172.732;2023-05-16T12:53:45;3.92;;;3.00;;
65825;SDS011;52586;-43.152;172.732;2023-05-16T12:56:16;4.15;;;2.97;;
65825;SDS011;52586;-43.152;172.732;2023-05-16T12:58:49;3.97;;;2.95;;
65825;SDS011;52586;-43.152;172.732;2023-05-16T13:01:19;4.28;;;3.38;;
65825;SDS011;52586;-43.152;172.732;2023-05-16T13:03:50;3.67;;;3.30;;
65825;SDS011;52586;-43.152;172.732;2023-05-16T13:06:20;5.00;;;3.47;;
65825;SDS011;52586;-43.152;172.732;2023-05-16T13:08:53;4.45;;;3.35;;
65825;SDS011;52586;-43.152;172.732;2023-05-16T13:11:24;4.20;;;3.22;;
65825;SDS011;52586;-43.152;172.732;2023-05-16T13:13:55;3.78;;;2.85;;
65825;SDS011;52586;-43.152;172.732;2023-05-16T13:16:25;4.50;;;2.85;;
65825;SDS011;52586;-43.152;172.732;2023-05-16T13:18:56;3.97;;;2.92;;
65825;SDS011;52586;-43.152;172.732;2023-05-16T13:21:27;3.20;;;2.60;;
65825;SDS011;52586;-43.152;172.732;2023-05-16T13:23:59;3.85;;;2.85;;
65825;SDS011;52586;-43.152;172.732;2023-05-16T13:26:30;3.28;;;2.50;;
65825;SDS011;52586;-43.152;172.732;2023-05-16T13:29:00;3.50;;;2.63;;
65825;SDS011;52586;-43.152;172.732;2023-05-16T13:31:34;3.80;;;2.80;;
65825;SDS011;52586;-43.152;172.732;2023-05-16T13:34:05;3.15;;;2.58;;
65825;SDS011;52586;-43.152;172.732;2023-05-16T13:36:36;3.38;;;2.78;;
65825;SDS011;52586;-43.152;172.732;2023-05-16T13:39:08;3.80;;;2.72;;
65825;SDS011;52586;-43.152;172.732;2023-05-16T13:41:39;3.80;;;2.80;;
65825;SDS011;52586;-43.152;172.732;2023-05-16T13:44:09;2.63;;;2.30;;
65825;SDS011;52586;-43.152;172.732;2023-05-16T13:46:40;3.80;;;3.00;;
65825;SDS011;52586;-43.152;172.732;2023-05-16T13:49:11;3.90;;;3.00;;
65825;SDS011;52586;-43.152;172.732;2023-05-16T13:51:42;2.85;;;2.50;;
65825;SDS011;52586;-43.152;172.732;2023-05-16T13:54:14;2.55;;;2.28;;
65825;SDS011;52586;-43.152;172.732;2023-05-16T13:56:45;3.55;;;2.60;;
65825;SDS011;52586;-43.152;172.732;2023-05-16T13:59:16;2.72;;;2.47;;
65825;SDS011;52586;-43.152;172.732;2023-05-16T14:01:46;3.33;;;2.65;;
65825;SDS011;52586;-43.152;172.732;2023-05-16T14:04:17;2.95;;;2.60;;
65825;SDS011;52586;-43.152;172.732;2023-05-16T14:06:47;3.03;;;2.38;;
65825;SDS011;52586;-43.152;172.732;2023-05-16T14:09:20;2.85;;;2.50;;
65825;SDS011;52586;-43.152;172.732;2023-05-16T14:11:51;2.67;;;2.10;;
65825;SDS011;52586;-43.152;172.732;2023-05-16T14:14:21;2.85;;;2.40;;
65825;SDS011;52586;-43.152;172.732;2023-05-16T14:16:53;2.75;;;2.35;;
65825;SDS011;52586;-43.152;172.732;2023-05-16T14:19:23;2.80;;;2.47;;
65825;SDS011;52586;-43.152;172.732;2023-05-16T14:21:54;2.42;;;2.00;;
65825;SDS011;52586;-43.152;172.732;2023-05-16T14:24:27;3.28;;;2.38;;
65825;SDS011;52586;-43.152;172.732;2023-05-16T14:26:57;2.80;;;2.42;;
65825;SDS011;52586;-43.152;172.732;2023-05-16T14:29:28;2.85;;;2.20;;
65825;SDS011;52586;-43.152;172.732;2023-05-16T14:31:58;3.05;;;2.50;;
65825;SDS011;52586;-43.152;172.732;2023-05-16T14:34:29;2.50;;;2.30;;
65825;SDS011;52586;-43.152;172.732;2023-05-16T14:37:00;2.38;;;2.13;;
65825;SDS011;52586;-43.152;172.732;2023-05-16T14:39:32;3.28;;;2.40;;